Gautier, MS (39553)

7:31 PM CDT on April 29, 2017 (GMT -0500)
Westgate | | Change Station
Active Advisory: Coastal Flood Advisory Active Notice: Coastal Flood Advisory

Elev 16 ft 30.41 °N, 88.64 °W | Updated 30 seconds ago

Overcast
Overcast
77.4 °F
Feels Like 79 °F
N
2.0
Wind Variable Wind from ENE

Today
High -- | Low -- °F
--% Chance of Precip.
Yesterday
High -- | Low -- °F
Precip. -- in
Pressure 29.95 in
Visibility 10.0 miles
Clouds Overcast 1400 ft
Heat Index 79 °F
Dew Point 76 °F
Humidity 96%
Rainfall 0.00 in
Snow Depth Not available.
6:12 AM 7:31 PM
Waxing Crescent, 17% visible
METAR KPQL 292353Z AUTO 14016G22KT 10SM OVC014 26/22 A2995 RMK AO2 SLP142 T02560222 10278 20256 58007
Pressure 29.95 in
Visibility 10.0 miles
Clouds Overcast 1400 ft
Heat Index 79 °F
Dew Point 76 °F
Humidity 96%
Rainfall 0.00 in
Snow Depth Not available.
6:12 AM 7:31 PM
Waxing Crescent, 17% visible
METAR KPQL 292353Z AUTO 14016G22KT 10SM OVC014 26/22 A2995 RMK AO2 SLP142 T02560222 10278 20256 58007

Get Your Daily Forecast Email!

Thanks for signing up!

Be on the lookout for a verification email in your inbox.

You'll start receiving severe weather alerts in your inbox..

×

10-Day Weather Forecast

Almanac

Astronomy

Apr. 29, 2017 Rise Set
Actual Time
Civil Twilight
Nautical Twilight
Astronomical Twilight
Moon
Length of Visible Light
Length of Day
Tomorrow will be .
, % of the Moon is Illuminated

Today's Extremes

State Highs State Lows

Community

WunderPhotos

WunderBlog® & News

Nearby

Air Quality

  Air Quality AQ Index Pollutant
Not available.

Snow Depth

Station Depth Elevation

Earthquake Activity

City Distance Mag. Time & Date
Minimum magnitude displayed is 2.5.

Coastal Water Temperatures

Place Temperature

Stations

Nearby Weather Stations

Station Location Temp. Windchill Dew Point Humidity Wind Precip. Elev Updated Type
                   

Watches & Warnings

Coastal Flood Advisory
Issued: 3:52 PM CDT Apr. 29, 2017 – National Weather Service

... Coastal flood advisory remains in effect until midnight CDT
Sunday night...

* coastal flooding... tides 1 to 2 feet above normal Sunday.

* Timing... astronomical high tides will be in the early afternoon
hours Sunday.

* Impacts... minor flooding of low lying areas and access roads
near tidal lakes... bays and inlets as well as the open coast
outside the hurricane protection levee systems.

Precautionary/preparedness actions...

A coastal flood advisory indicates that onshore winds and tides
will combine to generate flooding of low areas along the shore.